createdAt,value
2019-02-15T00:00:33.241Z,70.90
2019-02-15T00:03:02.443Z,70.20
2019-02-15T00:05:31.593Z,70.10
2019-02-15T00:08:00.752Z,70.10
2019-02-15T00:10:29.911Z,70.10
2019-02-15T00:12:59.050Z,70.10
2019-02-15T00:15:28.181Z,70.10
2019-02-15T00:17:58.962Z,70.00
2019-02-15T00:20:40.827Z,70.00
2019-02-15T00:23:09.709Z,70.00
2019-02-15T00:25:38.840Z,70.00
2019-02-15T00:28:07.966Z,70.00
2019-02-15T00:30:37.189Z,70.00
2019-02-15T00:33:06.347Z,70.10
2019-02-15T00:35:35.465Z,70.10
2019-02-15T00:38:04.682Z,70.10
2019-02-15T00:40:33.810Z,70.10
2019-02-15T00:43:04.611Z,70.10
2019-02-15T00:45:47.472Z,70.10
2019-02-15T00:48:18.264Z,70.10
2019-02-15T00:51:03.859Z,70.00
2019-02-15T00:53:34.648Z,70.00
2019-02-15T00:56:21.196Z,70.00
2019-02-15T00:59:06.485Z,70.00
2019-02-15T01:01:37.257Z,70.00
2019-02-15T01:04:10.866Z,70.10
2019-02-15T01:06:41.677Z,70.10
2019-02-15T01:09:12.451Z,70.30
2019-02-15T01:11:43.226Z,70.10
2019-02-15T01:14:12.554Z,70.90
2019-02-15T01:16:41.747Z,70.10
2019-02-15T01:19:10.960Z,70.10
2019-02-15T01:21:40.181Z,70.00
2019-02-15T01:24:09.330Z,70.00
2019-02-15T01:26:40.093Z,70.00
2019-02-15T01:29:19.961Z,70.00
2019-02-15T01:31:59.855Z,70.00
2019-02-15T01:34:36.559Z,69.90
2019-02-15T01:37:10.309Z,69.90
2019-02-15T01:39:41.079Z,69.90
2019-02-15T01:42:20.354Z,69.90
2019-02-15T01:44:51.155Z,69.30
2019-02-15T01:47:20.758Z,70.00
2019-02-15T01:49:49.903Z,69.90
2019-02-15T01:52:19.014Z,69.90
2019-02-15T01:54:48.165Z,70.00
2019-02-15T01:57:17.286Z,70.00
2019-02-15T01:59:46.425Z,69.90
2019-02-15T02:02:15.564Z,69.90
2019-02-15T02:04:44.745Z,69.90
2019-02-15T02:07:13.901Z,69.90
2019-02-15T02:09:43.042Z,69.80
2019-02-15T02:12:12.333Z,69.90
2019-02-15T02:14:41.507Z,69.80
2019-02-15T02:17:10.633Z,69.80
2019-02-15T02:19:39.776Z,69.70
2019-02-15T02:22:08.932Z,69.80
2019-02-15T02:24:38.070Z,69.80
2019-02-15T02:27:07.222Z,69.80
2019-02-15T02:29:36.331Z,69.80
2019-02-15T02:32:05.492Z,70.50
2019-02-15T02:34:34.616Z,69.70
2019-02-15T02:37:03.841Z,69.80
2019-02-15T02:39:32.963Z,69.70
2019-02-15T02:42:02.091Z,69.70
2019-02-15T02:44:31.219Z,69.70
2019-02-15T02:47:00.390Z,69.70
2019-02-15T02:49:29.510Z,69.70
2019-02-15T02:51:58.665Z,69.70
2019-02-15T02:54:27.778Z,69.70
2019-02-15T02:56:56.927Z,69.10
2019-02-15T02:59:26.065Z,69.70
2019-02-15T03:01:55.188Z,69.70
2019-02-15T03:04:24.336Z,69.70
2019-02-15T03:06:53.458Z,69.80
2019-02-15T03:09:22.607Z,69.70
2019-02-15T03:11:51.722Z,69.70
2019-02-15T03:14:20.900Z,69.70
2019-02-15T03:16:50.013Z,69.70
2019-02-15T03:19:19.163Z,69.70
2019-02-15T03:21:48.275Z,69.80
2019-02-15T03:24:17.415Z,69.80
2019-02-15T03:26:46.544Z,69.80
2019-02-15T03:29:15.696Z,69.70
2019-02-15T03:31:44.828Z,69.70
2019-02-15T03:34:13.934Z,69.80
2019-02-15T03:36:56.561Z,69.80
2019-02-15T03:39:39.618Z,69.70
2019-02-15T03:42:10.435Z,69.70
2019-02-15T03:44:39.577Z,69.60
2019-02-15T03:47:08.678Z,69.60
2019-02-15T03:49:37.800Z,69.60
2019-02-15T03:52:06.937Z,69.60
2019-02-15T03:54:36.084Z,70.40
2019-02-15T03:57:05.216Z,69.60
2019-02-15T03:59:34.367Z,69.60
2019-02-15T04:02:03.490Z,69.50
2019-02-15T04:04:33.983Z,69.50
2019-02-15T04:07:03.104Z,69.50
2019-02-15T04:09:33.884Z,69.50
2019-02-15T04:12:03.019Z,69.50
2019-02-15T04:14:33.180Z,69.50
2019-02-15T04:17:02.612Z,69.60
2019-02-15T04:19:31.720Z,69.60
2019-02-15T04:22:03.778Z,69.50
2019-02-15T04:24:32.939Z,69.50
2019-02-15T04:27:02.045Z,69.50
2019-02-15T04:29:31.215Z,69.50
2019-02-15T04:32:00.356Z,69.50
2019-02-15T04:34:29.460Z,69.50
2019-02-15T04:36:58.615Z,69.50
2019-02-15T04:39:27.702Z,69.50
2019-02-15T04:41:56.847Z,69.50
2019-02-15T04:44:25.987Z,69.50
2019-02-15T04:46:55.145Z,69.50
2019-02-15T04:49:24.293Z,69.50
2019-02-15T04:51:53.431Z,69.50
2019-02-15T04:54:22.554Z,69.50
2019-02-15T04:56:51.674Z,69.60
2019-02-15T04:59:22.475Z,69.60
2019-02-15T05:01:51.622Z,69.60
2019-02-15T05:04:20.716Z,69.50
2019-02-15T05:06:49.884Z,69.50
2019-02-15T05:09:19.006Z,69.50
2019-02-15T05:11:48.123Z,69.50
2019-02-15T05:14:17.279Z,69.50
2019-02-15T05:16:46.445Z,69.50
2019-02-15T05:19:15.535Z,69.50
2019-02-15T05:21:44.680Z,69.50
2019-02-15T05:24:13.888Z,69.50
2019-02-15T05:26:43.051Z,69.50
2019-02-15T05:29:12.171Z,69.50
2019-02-15T05:31:42.953Z,69.60
2019-02-15T05:34:12.126Z,69.50
2019-02-15T05:36:41.237Z,69.50
2019-02-15T05:39:10.391Z,69.60
2019-02-15T05:41:39.547Z,69.40
2019-02-15T05:44:08.687Z,69.50
2019-02-15T05:46:37.805Z,69.50
2019-02-15T05:49:06.979Z,69.40
2019-02-15T05:51:36.075Z,69.40
2019-02-15T05:54:05.239Z,69.50
2019-02-15T05:56:37.178Z,69.50
2019-02-15T05:59:06.327Z,69.40
2019-02-15T06:01:35.652Z,69.50
2019-02-15T06:04:04.796Z,69.40
2019-02-15T06:06:33.936Z,69.50
2019-02-15T06:09:04.838Z,69.50
2019-02-15T06:11:34.067Z,69.50
2019-02-15T06:14:04.308Z,69.60
2019-02-15T06:16:33.959Z,69.30
2019-02-15T06:19:06.560Z,69.30
2019-02-15T06:21:36.234Z,69.40
2019-02-15T06:24:06.021Z,69.50
2019-02-15T06:26:35.948Z,69.50
2019-02-15T06:29:05.668Z,69.40
2019-02-15T06:31:35.486Z,69.50
2019-02-15T06:34:05.431Z,69.50
2019-02-15T06:36:36.205Z,69.30
2019-02-15T06:39:07.273Z,69.30
2019-02-15T06:41:36.400Z,69.40
2019-02-15T06:44:05.560Z,70.20
2019-02-15T06:46:34.748Z,69.30
2019-02-15T06:49:03.848Z,69.30
2019-02-15T06:51:32.994Z,69.30
2019-02-15T06:54:02.121Z,69.30
2019-02-15T06:56:31.269Z,69.30
2019-02-15T06:59:14.456Z,69.40
2019-02-15T07:01:45.242Z,69.50
2019-02-15T07:04:32.278Z,69.50
2019-02-15T07:07:01.428Z,69.50
2019-02-15T07:09:30.550Z,69.50
2019-02-15T07:12:12.671Z,69.40
2019-02-15T07:14:41.801Z,69.50
2019-02-15T07:17:10.964Z,69.50
2019-02-15T07:19:40.085Z,69.60
2019-02-15T07:22:09.244Z,69.60
2019-02-15T07:24:38.388Z,69.60
2019-02-15T07:27:09.161Z,69.70
2019-02-15T07:29:38.287Z,69.60
2019-02-15T07:32:07.435Z,69.60
2019-02-15T07:34:36.596Z,69.70
2019-02-15T07:37:05.794Z,69.60
2019-02-15T07:39:34.925Z,69.70
2019-02-15T07:42:04.074Z,69.70
2019-02-15T07:44:33.192Z,69.70
2019-02-15T07:47:02.350Z,69.80
2019-02-15T07:49:31.499Z,69.80
2019-02-15T07:52:00.614Z,69.80
2019-02-15T07:54:29.761Z,69.90
2019-02-15T07:57:00.437Z,69.80
2019-02-15T07:59:29.576Z,69.90
2019-02-15T08:02:01.866Z,69.90
2019-02-15T08:04:29.578Z,69.80
2019-02-15T08:06:58.771Z,70.60
2019-02-15T08:09:29.550Z,69.90
2019-02-15T08:11:59.021Z,70.00
2019-02-15T08:14:28.362Z,70.00
2019-02-15T08:16:57.497Z,70.00
2019-02-15T08:19:26.643Z,70.10
2019-02-15T08:21:56.347Z,70.80
2019-02-15T08:24:25.975Z,70.10
2019-02-15T08:26:55.055Z,70.10
2019-02-15T08:29:24.192Z,70.00
2019-02-15T08:31:55.012Z,70.00
2019-02-15T08:34:24.165Z,70.00
2019-02-15T08:36:53.300Z,69.90
2019-02-15T08:39:22.455Z,69.90
2019-02-15T08:42:01.727Z,69.80
2019-02-15T08:44:22.443Z,69.90
2019-02-15T08:46:51.565Z,70.10
2019-02-15T08:49:20.716Z,69.80
2019-02-15T08:51:49.842Z,69.80
2019-02-15T08:54:19.462Z,69.80
2019-02-15T08:56:48.548Z,69.90
2019-02-15T08:59:17.690Z,69.80
2019-02-15T09:01:48.501Z,69.70
2019-02-15T09:04:17.638Z,69.90
2019-02-15T09:06:47.065Z,69.80
2019-02-15T09:09:18.239Z,69.90
2019-02-15T09:11:47.434Z,69.80
2019-02-15T09:14:16.556Z,69.80
2019-02-15T09:16:45.696Z,70.60
2019-02-15T09:19:14.820Z,69.80
2019-02-15T09:21:43.971Z,69.70
2019-02-15T09:24:13.110Z,69.80
2019-02-15T09:26:42.253Z,69.70
2019-02-15T09:29:11.385Z,69.70
2019-02-15T09:31:40.548Z,69.70
2019-02-15T09:34:09.663Z,69.80
2019-02-15T09:36:38.810Z,69.70
2019-02-15T09:39:08.598Z,69.70
2019-02-15T09:41:37.726Z,69.70
2019-02-15T09:44:06.847Z,69.70
2019-02-15T09:46:36.013Z,69.70
2019-02-15T09:49:05.149Z,69.70
2019-02-15T09:51:34.297Z,69.70
2019-02-15T09:54:03.425Z,69.70
2019-02-15T09:56:32.571Z,69.70
2019-02-15T09:59:01.721Z,69.70
2019-02-15T10:01:30.844Z,69.70
2019-02-15T10:03:59.997Z,69.70
2019-02-15T10:06:29.143Z,69.70
2019-02-15T10:08:58.284Z,69.70
2019-02-15T10:11:27.406Z,69.80
2019-02-15T10:13:56.547Z,69.70
2019-02-15T10:16:29.769Z,69.80
2019-02-15T10:18:56.568Z,69.80
2019-02-15T10:21:25.716Z,69.80
2019-02-15T10:23:54.860Z,69.70
2019-02-15T10:26:23.990Z,69.60
2019-02-15T10:28:53.145Z,69.80
2019-02-15T10:31:22.339Z,69.60
2019-02-15T10:33:51.481Z,69.60
2019-02-15T10:36:22.287Z,69.60
2019-02-15T10:38:51.576Z,69.50
2019-02-15T10:41:20.698Z,69.50
2019-02-15T10:43:49.826Z,69.40
2019-02-15T10:46:19.063Z,69.40
2019-02-15T10:48:48.210Z,69.40
2019-02-15T10:51:17.362Z,69.40
2019-02-15T10:53:46.514Z,69.50
2019-02-15T10:56:15.664Z,69.40
2019-02-15T10:58:48.067Z,69.50
2019-02-15T11:01:17.204Z,69.60
2019-02-15T11:03:46.364Z,69.60
2019-02-15T11:06:17.149Z,69.40
2019-02-15T11:08:46.275Z,69.50
2019-02-15T11:11:15.432Z,69.40
2019-02-15T11:13:44.541Z,69.30
2019-02-15T11:16:15.326Z,69.30
2019-02-15T11:18:44.506Z,69.30
2019-02-15T11:21:13.661Z,69.20
2019-02-15T11:23:44.405Z,69.20
2019-02-15T11:26:13.554Z,69.20
2019-02-15T11:28:42.697Z,69.10
2019-02-15T11:31:11.862Z,69.10
2019-02-15T11:33:40.976Z,69.10
2019-02-15T11:36:10.133Z,69.20
2019-02-15T11:38:39.252Z,69.20
2019-02-15T11:41:11.142Z,69.20
2019-02-15T11:43:39.262Z,69.90
2019-02-15T11:46:10.804Z,69.10
2019-02-15T11:48:39.936Z,69.10
2019-02-15T11:51:09.069Z,69.00
2019-02-15T11:53:38.195Z,69.00
2019-02-15T11:56:09.444Z,69.00
2019-02-15T11:58:39.044Z,69.00
2019-02-15T12:01:08.188Z,68.90
2019-02-15T12:03:37.363Z,69.00
2019-02-15T12:06:06.552Z,68.90
2019-02-15T12:08:35.750Z,69.00
2019-02-15T12:11:04.890Z,68.90
2019-02-15T12:13:34.049Z,69.00
2019-02-15T12:16:03.176Z,69.00
2019-02-15T12:18:32.342Z,68.90
2019-02-15T12:21:01.480Z,69.80
2019-02-15T12:23:30.701Z,69.00
2019-02-15T12:25:59.846Z,69.00
2019-02-15T12:28:30.631Z,69.00
2019-02-15T12:30:59.891Z,69.00
2019-02-15T12:33:29.037Z,69.00
2019-02-15T12:35:58.188Z,69.00
2019-02-15T12:38:27.334Z,69.00
2019-02-15T12:40:56.460Z,68.90
2019-02-15T12:43:25.626Z,68.90
2019-02-15T12:45:54.762Z,69.00
2019-02-15T12:48:24.100Z,68.90
2019-02-15T12:50:53.261Z,68.90
2019-02-15T12:53:22.405Z,68.90
2019-02-15T12:55:51.518Z,68.90
2019-02-15T12:58:20.663Z,68.90
2019-02-15T13:00:49.793Z,68.90
2019-02-15T13:03:18.945Z,68.90
2019-02-15T13:05:48.094Z,68.90
2019-02-15T13:08:17.273Z,68.80
2019-02-15T13:10:46.402Z,68.80
2019-02-15T13:13:15.527Z,68.80
2019-02-15T13:15:44.688Z,68.70
2019-02-15T13:18:13.834Z,68.80
2019-02-15T13:20:42.974Z,68.80
2019-02-15T13:23:12.110Z,68.80
2019-02-15T13:25:41.254Z,68.80
2019-02-15T13:28:12.729Z,68.80
2019-02-15T13:30:41.403Z,68.80
2019-02-15T13:33:11.326Z,68.90
2019-02-15T13:35:40.580Z,68.70
2019-02-15T13:38:11.362Z,68.90
2019-02-15T13:40:40.535Z,68.80
2019-02-15T13:43:09.715Z,68.70
2019-02-15T13:45:38.878Z,68.70
2019-02-15T13:48:08.003Z,68.70
2019-02-15T13:50:37.170Z,68.80
2019-02-15T13:53:06.299Z,68.80
2019-02-15T13:55:35.540Z,68.80
2019-02-15T13:58:04.693Z,68.80
2019-02-15T14:00:33.860Z,68.80
2019-02-15T14:03:02.992Z,68.80
2019-02-15T14:05:32.161Z,68.80
2019-02-15T14:08:01.307Z,68.70
2019-02-15T14:10:30.490Z,68.70
2019-02-15T14:12:59.648Z,68.70
2019-02-15T14:15:28.783Z,68.60
2019-02-15T14:17:57.945Z,68.60
2019-02-15T14:20:27.084Z,68.60
2019-02-15T14:22:56.244Z,68.60
2019-02-15T14:25:25.379Z,68.50
2019-02-15T14:27:54.555Z,68.50
2019-02-15T14:30:23.720Z,68.70
2019-02-15T14:32:52.897Z,68.60
2019-02-15T14:35:22.023Z,68.60
2019-02-15T14:37:51.194Z,68.60
2019-02-15T14:40:20.404Z,69.40
2019-02-15T14:42:49.979Z,68.60
2019-02-15T14:45:19.130Z,68.60
2019-02-15T14:47:54.892Z,68.60
2019-02-15T14:50:25.501Z,68.70
2019-02-15T14:52:54.655Z,68.70
2019-02-15T14:55:23.783Z,68.70
2019-02-15T14:57:52.927Z,68.70
2019-02-15T15:00:22.108Z,68.70
2019-02-15T15:02:51.286Z,68.60
2019-02-15T15:05:20.412Z,68.80
2019-02-15T15:07:49.592Z,68.60
2019-02-15T15:10:18.766Z,68.80
2019-02-15T15:12:50.937Z,68.70
2019-02-15T15:15:20.130Z,68.70
2019-02-15T15:17:50.103Z,68.60
2019-02-15T15:20:20.944Z,68.70
2019-02-15T15:22:50.074Z,68.70
2019-02-15T15:25:19.242Z,68.70
2019-02-15T15:27:48.364Z,68.60
2019-02-15T15:30:19.163Z,68.70
2019-02-15T15:32:48.361Z,68.70
2019-02-15T15:35:17.520Z,68.70
2019-02-15T15:37:46.897Z,68.70
2019-02-15T15:40:17.549Z,68.80
2019-02-15T15:42:46.716Z,68.80
2019-02-15T15:45:15.872Z,68.80
2019-02-15T15:47:45.020Z,68.70
2019-02-15T15:50:14.236Z,68.70
2019-02-15T15:52:43.363Z,68.70
2019-02-15T15:55:13.764Z,68.70
2019-02-15T15:57:42.903Z,68.70
2019-02-15T16:00:17.158Z,68.70
2019-02-15T16:02:46.323Z,68.70
2019-02-15T16:05:15.464Z,68.70
2019-02-15T16:07:44.606Z,68.80
2019-02-15T16:10:16.214Z,68.80
2019-02-15T16:12:45.337Z,68.80
2019-02-15T16:15:15.056Z,68.80
2019-02-15T16:17:44.185Z,68.80
2019-02-15T16:20:14.295Z,68.80
2019-02-15T16:22:43.515Z,68.80
2019-02-15T16:25:12.694Z,68.90
2019-02-15T16:27:43.481Z,68.90
2019-02-15T16:30:16.412Z,69.00
2019-02-15T16:32:45.554Z,68.90
2019-02-15T16:35:14.688Z,69.00
2019-02-15T16:37:43.862Z,69.10
2019-02-15T16:40:15.006Z,69.00
2019-02-15T16:42:44.189Z,69.00
2019-02-15T16:45:15.356Z,69.00
2019-02-15T16:47:44.497Z,69.00
2019-02-15T16:50:14.004Z,69.00
2019-02-15T16:52:43.150Z,69.10
2019-02-15T16:55:13.391Z,69.00
2019-02-15T16:57:42.726Z,69.10
2019-02-15T17:00:13.639Z,70.00
2019-02-15T17:02:42.810Z,69.10
2019-02-15T17:05:12.620Z,69.10
2019-02-15T17:07:41.848Z,69.10
2019-02-15T17:10:11.505Z,69.10
2019-02-15T17:12:40.628Z,69.10
2019-02-15T17:15:14.893Z,69.30
2019-02-15T17:17:44.008Z,69.30
2019-02-15T17:20:13.197Z,69.30
2019-02-15T17:22:42.348Z,69.30
2019-02-15T17:25:12.545Z,69.30
2019-02-15T17:27:41.686Z,69.40
2019-02-15T17:30:13.863Z,69.40
2019-02-15T17:32:43.018Z,69.40
2019-02-15T17:35:12.801Z,69.50
2019-02-15T17:37:41.943Z,69.50
2019-02-15T17:40:14.547Z,69.50
2019-02-15T17:42:43.687Z,69.60
2019-02-15T17:45:13.266Z,69.80
2019-02-15T17:47:42.379Z,69.70
2019-02-15T17:50:12.400Z,69.70
2019-02-15T17:52:41.545Z,69.80
2019-02-15T17:55:11.325Z,69.80
2019-02-15T17:57:40.467Z,69.80
2019-02-15T18:00:13.627Z,69.80
2019-02-15T18:02:42.764Z,69.90
2019-02-15T18:05:17.931Z,69.90
2019-02-15T18:07:49.830Z,70.00
2019-02-15T18:10:18.992Z,70.00
2019-02-15T18:12:48.137Z,69.90
2019-02-15T18:15:17.286Z,70.00
2019-02-15T18:17:46.444Z,70.00
2019-02-15T18:20:15.622Z,70.10
2019-02-15T18:22:44.845Z,70.10
2019-02-15T18:25:14.134Z,70.00
2019-02-15T18:27:43.649Z,70.10
2019-02-15T18:30:15.529Z,70.10
2019-02-15T18:32:44.648Z,70.10
2019-02-15T18:35:13.787Z,70.10
2019-02-15T18:37:42.987Z,70.10
2019-02-15T18:40:12.181Z,70.20
2019-02-15T18:42:41.290Z,70.20
2019-02-15T18:45:19.541Z,70.10
2019-02-15T18:47:48.762Z,70.20
2019-02-15T18:50:17.873Z,70.20
2019-02-15T18:52:47.063Z,70.20
2019-02-15T18:55:16.287Z,70.20
2019-02-15T18:57:45.577Z,70.30
2019-02-15T19:00:22.870Z,70.20
2019-02-15T19:02:50.264Z,71.10
2019-02-15T19:05:19.490Z,70.40
2019-02-15T19:07:48.620Z,70.30
2019-02-15T19:10:21.229Z,70.40
2019-02-15T19:12:50.380Z,70.30
2019-02-15T19:15:20.180Z,70.30
2019-02-15T19:17:49.333Z,70.40
2019-02-15T19:20:18.641Z,70.30
2019-02-15T19:22:47.810Z,70.50
2019-02-15T19:25:20.238Z,70.50
2019-02-15T19:27:49.380Z,70.50
2019-02-15T19:30:31.478Z,70.50
2019-02-15T19:33:00.636Z,70.50
2019-02-15T19:35:29.832Z,70.50
2019-02-15T19:37:58.924Z,70.40
2019-02-15T19:40:28.110Z,70.50
2019-02-15T19:43:11.387Z,70.50
2019-02-15T19:45:40.552Z,70.50
2019-02-15T19:48:11.324Z,70.50
2019-02-15T19:50:40.474Z,71.00
2019-02-15T19:53:11.245Z,70.50
2019-02-15T19:55:40.403Z,70.40
2019-02-15T19:58:12.279Z,70.50
2019-02-15T20:00:41.470Z,70.50
2019-02-15T20:03:10.598Z,70.50
2019-02-15T20:05:39.760Z,70.60
2019-02-15T20:08:10.944Z,70.60
2019-02-15T20:10:39.948Z,69.80
2019-02-15T20:13:09.075Z,70.50
2019-02-15T20:15:38.276Z,70.50
2019-02-15T20:18:09.519Z,70.50
2019-02-15T20:20:38.715Z,70.50
2019-02-15T20:23:07.834Z,70.40
2019-02-15T20:25:36.990Z,70.40
2019-02-15T20:28:13.847Z,70.40
2019-02-15T20:30:37.009Z,70.50
2019-02-15T20:33:06.183Z,70.50
2019-02-15T20:35:35.334Z,70.50
2019-02-15T20:38:04.577Z,70.40
2019-02-15T20:40:33.707Z,70.50
2019-02-15T20:43:02.908Z,70.30
2019-02-15T20:45:32.070Z,70.30
2019-02-15T20:48:01.320Z,70.30
2019-02-15T20:50:31.847Z,70.30
2019-02-15T20:53:00.977Z,70.30
2019-02-15T20:55:30.116Z,70.40
2019-02-15T20:57:59.278Z,70.40
2019-02-15T21:00:30.029Z,70.40
2019-02-15T21:03:03.743Z,70.40
2019-02-15T21:05:32.903Z,70.50
2019-02-15T21:08:02.097Z,70.50
2019-02-15T21:10:31.226Z,70.50
2019-02-15T21:13:00.397Z,70.60
2019-02-15T21:15:29.544Z,70.60
2019-02-15T21:17:58.776Z,70.60
2019-02-15T21:20:28.000Z,70.60
2019-02-15T21:22:57.151Z,70.60
2019-02-15T21:25:27.711Z,70.60
2019-02-15T21:27:57.017Z,71.30
2019-02-15T21:30:26.376Z,70.50
2019-02-15T21:32:55.697Z,70.50
2019-02-15T21:35:24.824Z,70.40
2019-02-15T21:37:53.962Z,71.20
2019-02-15T21:40:23.137Z,70.40
2019-02-15T21:42:52.376Z,70.50
2019-02-15T21:45:21.585Z,70.50
2019-02-15T21:47:53.082Z,70.50
2019-02-15T21:50:22.224Z,70.40
2019-02-15T21:52:51.382Z,70.40
2019-02-15T21:55:20.538Z,70.50
2019-02-15T21:57:49.686Z,70.50
2019-02-15T22:00:24.620Z,70.40
2019-02-15T22:02:53.763Z,70.60
2019-02-15T22:05:22.945Z,70.60
2019-02-15T22:07:52.085Z,70.50
2019-02-15T22:10:21.207Z,70.50
2019-02-15T22:12:50.367Z,70.60
2019-02-15T22:15:19.597Z,70.60
2019-02-15T22:17:48.744Z,70.70
2019-02-15T22:20:26.341Z,70.60
2019-02-15T22:22:49.340Z,70.60
2019-02-15T22:25:21.360Z,70.50
2019-02-15T22:27:50.494Z,70.50
2019-02-15T22:30:23.330Z,70.50
2019-02-15T22:32:52.499Z,70.50
2019-02-15T22:35:21.643Z,70.30
2019-02-15T22:37:50.806Z,70.30
2019-02-15T22:40:33.437Z,70.50
2019-02-15T22:43:07.189Z,70.50
2019-02-15T22:45:36.318Z,70.40
2019-02-15T22:48:05.457Z,70.40
2019-02-15T22:50:36.252Z,70.50
2019-02-15T22:53:05.591Z,70.50
2019-02-15T22:55:35.973Z,70.40
2019-02-15T22:58:05.171Z,70.40
2019-02-15T23:00:49.242Z,70.40
2019-02-15T23:03:21.987Z,70.40
2019-02-15T23:05:51.118Z,70.40
2019-02-15T23:08:20.355Z,70.50
2019-02-15T23:10:49.480Z,70.50
2019-02-15T23:13:18.634Z,70.50
2019-02-15T23:15:47.768Z,70.50
2019-02-15T23:18:18.925Z,70.50
2019-02-15T23:20:48.093Z,70.50
2019-02-15T23:23:17.327Z,70.50
2019-02-15T23:25:46.445Z,70.60
2019-02-15T23:28:15.603Z,70.60
2019-02-15T23:30:44.718Z,70.50
2019-02-15T23:33:13.855Z,70.50
2019-02-15T23:35:42.986Z,70.50
2019-02-15T23:38:12.217Z,70.40
2019-02-15T23:40:41.373Z,70.50
2019-02-15T23:43:10.506Z,70.50
2019-02-15T23:45:41.695Z,70.60
2019-02-15T23:48:12.705Z,70.60
2019-02-15T23:50:41.415Z,71.40
2019-02-15T23:53:10.645Z,70.70
2019-02-15T23:55:39.814Z,70.80
2019-02-15T23:58:08.952Z,70.80
